Portada
METAR-TAF:

METAR-TAF

Aeroports :

Medina, Aràbia Saudita

latitud: 24-33N, longitud: 039-42E, altitud: 654 m

Observació

L'informe es va fer fa 47 minuts, a les 14:00 UTC
Vent 6 kt del Nord/Nord-Oest
Temperatura 41°C
Humitat 5%
Pressió 1007 hPa
Visibilitat 10 km o més
sense núvols per sota de 1500 mi sense presència de cumulonimbus.

METAR: OEMA 161400Z 34006KT CAVOK 41/M05 Q1007 NOSIG

Hora: 17:47 (14:47 UTC)

Pronòstic

L'informe es va fer fa 3 hores i 47 minuts, a les 11:00 UTC
Pronòstic vàlid del 16 a les 12 UTC al 17 a les 18 UTC
Vent 5 kt del Oest/Nord-Oest amb ràfegues de 15 kt
Visibilitat: 8000 m
Probabilitat 30% :
Temporalment
l' 16 a les 12 UTC al 16 a les 15 UTC
Visibilitat: 4000 m
torb alta de pols
Evolucionant progressivament
l' 16 a les 18 UTC al 16 a les 20 UTC
Vent 3 kt amb direcció variable

TAF: OEMA 161100Z 1612/1718 30005G15KT 8000 NSC PROB30 TEMPO 1612/1615 4000 BLDU BECMG 1618/1620 VRB03KT

Observacions i pronòstics meteorològics de més de 4000 aeroports (METAR i TAF).

Les estacions disponibles són els punts grocs i vermells al mapa.

Posi el ratolí al punt desitjat per veure el nom de l'estació.

Feu clic per veure les observacions i els pronòstics meteorològics.

Per canviar el mapa: feu clic els botons verds amb una creu de color negre per apropar; al botó verd amb un guió per allunyar la imatge; o en les fletxes verdes per a mapes adjacents.


METAR-TAF: